createdAt,value
2019-05-26T00:00:02.901Z,0
2019-05-26T00:01:03.024Z,0
2019-05-26T00:02:03.156Z,0
2019-05-26T00:03:03.874Z,0
2019-05-26T00:04:03.527Z,0
2019-05-26T00:05:03.920Z,0
2019-05-26T00:06:04.908Z,0
2019-05-26T00:07:05.962Z,0
2019-05-26T00:08:06.077Z,0
2019-05-26T00:09:06.488Z,0
2019-05-26T00:10:07.007Z,0
2019-05-26T00:11:07.444Z,0
2019-05-26T00:12:08.415Z,0
2019-05-26T00:13:09.385Z,0
2019-05-26T00:14:09.333Z,0
2019-05-26T00:15:09.462Z,0
2019-05-26T00:16:10.488Z,0
2019-05-26T00:17:11.473Z,0
2019-05-26T00:18:11.148Z,0
2019-05-26T00:19:12.428Z,0
2019-05-26T00:20:12.555Z,0
2019-05-26T00:21:13.686Z,0
2019-05-26T00:22:14.395Z,0
2019-05-26T00:23:15.400Z,0
2019-05-26T00:24:15.059Z,0
2019-05-26T00:25:15.184Z,0
2019-05-26T00:26:15.308Z,0
2019-05-26T00:27:15.434Z,0
2019-05-26T00:28:16.124Z,0
2019-05-26T00:29:16.522Z,0
2019-05-26T00:30:16.647Z,0
2019-05-26T00:31:17.067Z,0
2019-05-26T00:32:18.078Z,0
2019-05-26T00:33:18.781Z,0
2019-05-26T00:34:19.302Z,0
2019-05-26T00:35:19.624Z,0
2019-05-26T00:36:19.846Z,0
2019-05-26T00:37:20.558Z,0
2019-05-26T00:38:21.276Z,0
2019-05-26T00:39:22.011Z,0
2019-05-26T00:40:22.455Z,0
2019-05-26T00:41:22.596Z,0
2019-05-26T00:42:23.307Z,0
2019-05-26T00:43:23.997Z,0
2019-05-26T00:44:25.254Z,0
2019-05-26T00:45:25.683Z,0
2019-05-26T00:46:25.814Z,0
2019-05-26T00:47:25.937Z,0
2019-05-26T00:48:26.054Z,0
2019-05-26T00:49:26.762Z,0
2019-05-26T00:50:27.181Z,0
2019-05-26T00:51:27.303Z,0
2019-05-26T00:52:27.715Z,0
2019-05-26T00:53:27.835Z,0
2019-05-26T00:54:29.403Z,0
2019-05-26T00:55:28.795Z,0
2019-05-26T00:56:29.511Z,0
2019-05-26T00:57:29.922Z,0
2019-05-26T00:58:30.043Z,0
2019-05-26T00:59:30.776Z,0
2019-05-26T01:00:31.473Z,0
2019-05-26T01:01:31.885Z,0
2019-05-26T01:02:32.287Z,0
2019-05-26T01:03:32.407Z,0
2019-05-26T01:04:32.943Z,0
2019-05-26T01:05:33.951Z,0
2019-05-26T01:06:34.074Z,0
2019-05-26T01:07:34.475Z,0
2019-05-26T01:08:34.904Z,0
2019-05-26T01:09:35.624Z,0
2019-05-26T01:10:35.740Z,0
2019-05-26T01:11:36.139Z,0
2019-05-26T01:12:37.130Z,0
2019-05-26T01:13:37.125Z,0
2019-05-26T01:14:37.114Z,0
2019-05-26T01:15:37.236Z,0
2019-05-26T01:16:37.360Z,0
2019-05-26T01:17:37.779Z,0
2019-05-26T01:18:37.906Z,0
2019-05-26T01:19:38.657Z,0
2019-05-26T01:20:38.779Z,0
2019-05-26T01:21:39.473Z,0
2019-05-26T01:22:40.159Z,0
2019-05-26T01:23:40.573Z,0
2019-05-26T01:24:41.563Z,0
2019-05-26T01:25:41.682Z,0
2019-05-26T01:26:42.372Z,0
2019-05-26T01:27:42.771Z,0
2019-05-26T01:28:42.908Z,0
2019-05-26T01:29:43.612Z,0
2019-05-26T01:30:44.436Z,0
2019-05-26T01:31:44.848Z,0
2019-05-26T01:32:45.547Z,0
2019-05-26T01:33:46.255Z,0
2019-05-26T01:34:47.237Z,0
2019-05-26T01:35:47.640Z,0
2019-05-26T01:36:48.340Z,0
2019-05-26T01:37:48.458Z,0
2019-05-26T01:38:49.170Z,0
2019-05-26T01:39:49.292Z,0
2019-05-26T01:40:49.739Z,0
2019-05-26T01:41:50.453Z,0
2019-05-26T01:42:50.581Z,0
2019-05-26T01:43:50.998Z,0
2019-05-26T01:44:51.650Z,0
2019-05-26T01:45:52.069Z,0
2019-05-26T01:46:52.468Z,0
2019-05-26T01:47:52.862Z,0
2019-05-26T01:48:53.608Z,0
2019-05-26T01:49:53.734Z,0
2019-05-26T01:50:54.133Z,0
2019-05-26T01:51:54.548Z,0
2019-05-26T01:52:54.975Z,0
2019-05-26T01:53:55.665Z,0
2019-05-26T01:54:56.804Z,0
2019-05-26T01:55:55.923Z,0
2019-05-26T01:56:56.067Z,0
2019-05-26T01:57:56.201Z,0
2019-05-26T01:58:56.322Z,0
2019-05-26T01:59:57.312Z,0
2019-05-26T02:00:57.790Z,0
2019-05-26T02:01:58.849Z,0
2019-05-26T02:02:58.667Z,0
2019-05-26T02:03:58.818Z,0
2019-05-26T02:05:00.055Z,0
2019-05-26T02:06:00.498Z,0
2019-05-26T02:07:00.895Z,0
2019-05-26T02:08:01.012Z,0
2019-05-26T02:09:01.142Z,0
2019-05-26T02:10:01.891Z,0
2019-05-26T02:11:02.287Z,0
2019-05-26T02:12:02.419Z,0
2019-05-26T02:13:02.551Z,0
2019-05-26T02:14:03.557Z,0
2019-05-26T02:15:03.230Z,0
2019-05-26T02:16:03.362Z,0
2019-05-26T02:17:04.069Z,0
2019-05-26T02:18:04.773Z,0
2019-05-26T02:19:05.186Z,0
2019-05-26T02:20:05.636Z,0
2019-05-26T02:21:06.463Z,0
2019-05-26T02:22:07.270Z,0
2019-05-26T02:23:07.756Z,0
2019-05-26T02:24:08.171Z,0
2019-05-26T02:25:09.427Z,0
2019-05-26T02:26:10.123Z,0
2019-05-26T02:27:11.091Z,0
2019-05-26T02:28:11.501Z,0
2019-05-26T02:29:11.920Z,0
2019-05-26T02:30:13.242Z,0
2019-05-26T02:31:13.250Z,0
2019-05-26T02:32:13.960Z,0
2019-05-26T02:33:15.263Z,0
2019-05-26T02:34:15.016Z,0
2019-05-26T02:35:15.283Z,0
2019-05-26T02:36:16.286Z,0
2019-05-26T02:37:16.420Z,0
2019-05-26T02:38:16.845Z,0
2019-05-26T02:39:19.777Z,0
2019-05-26T02:40:19.167Z,0
2019-05-26T02:41:18.607Z,0
2019-05-26T02:42:19.053Z,0
2019-05-26T02:43:19.852Z,0
2019-05-26T02:44:20.567Z,0
2019-05-26T02:45:21.093Z,0
2019-05-26T02:46:22.105Z,0
2019-05-26T02:47:21.900Z,0
2019-05-26T02:48:22.692Z,0
2019-05-26T02:49:24.093Z,0
2019-05-26T02:50:24.357Z,0
2019-05-26T02:51:24.516Z,0
2019-05-26T02:52:24.932Z,0
2019-05-26T02:53:29.936Z,0
2019-05-26T02:54:26.338Z,0
2019-05-26T02:55:28.225Z,0
2019-05-26T02:56:27.628Z,0
2019-05-26T02:57:28.069Z,0
2019-05-26T02:58:29.075Z,0
2019-05-26T02:59:28.798Z,0
2019-05-26T03:00:29.510Z,0
2019-05-26T03:01:30.502Z,0
2019-05-26T03:02:31.227Z,0
2019-05-26T03:03:32.236Z,0
2019-05-26T03:04:32.950Z,0
2019-05-26T03:05:33.808Z,0
2019-05-26T03:06:34.222Z,0
2019-05-26T03:07:34.394Z,0
2019-05-26T03:08:34.834Z,0
2019-05-26T03:09:39.709Z,0
2019-05-26T03:10:36.704Z,0
2019-05-26T03:11:37.703Z,0
2019-05-26T03:12:37.131Z,0
2019-05-26T03:13:37.253Z,0
2019-05-26T03:14:37.969Z,0
2019-05-26T03:15:38.263Z,0
2019-05-26T03:16:39.268Z,0
2019-05-26T03:17:39.671Z,0
2019-05-26T03:18:40.968Z,0
2019-05-26T03:19:40.994Z,0
2019-05-26T03:20:41.130Z,0
2019-05-26T03:21:41.566Z,0
2019-05-26T03:22:41.984Z,0
2019-05-26T03:23:42.394Z,0
2019-05-26T03:24:43.107Z,0
2019-05-26T03:25:43.953Z,0
2019-05-26T03:26:44.385Z,0
2019-05-26T03:27:45.406Z,0
2019-05-26T03:28:45.530Z,0
2019-05-26T03:29:46.232Z,0
2019-05-26T03:30:47.007Z,0
2019-05-26T03:31:48.145Z,0
2019-05-26T03:32:49.238Z,0
2019-05-26T03:33:49.298Z,0
2019-05-26T03:34:50.100Z,0
2019-05-26T03:35:50.707Z,0
2019-05-26T03:36:50.154Z,0
2019-05-26T03:37:50.592Z,0
2019-05-26T03:38:51.430Z,0
2019-05-26T03:40:00.174Z,0
2019-05-26T03:40:51.904Z,0
2019-05-26T03:41:52.907Z,0
2019-05-26T03:42:53.605Z,0
2019-05-26T03:43:54.888Z,0
2019-05-26T03:44:55.611Z,0
2019-05-26T03:45:55.300Z,0
2019-05-26T03:46:56.596Z,0
2019-05-26T03:47:57.306Z,0
2019-05-26T03:48:58.319Z,0
2019-05-26T03:49:58.331Z,0
2019-05-26T03:50:59.106Z,0
2019-05-26T03:52:00.155Z,0
2019-05-26T03:52:59.881Z,5.63
2019-05-26T03:54:00.592Z,5.63
2019-05-26T03:55:01.606Z,5.63
2019-05-26T03:56:01.880Z,5.63
2019-05-26T03:57:02.631Z,5.63
2019-05-26T03:58:03.921Z,5.63
2019-05-26T03:59:04.919Z,5.63
2019-05-26T04:00:04.940Z,5.63
2019-05-26T04:01:05.740Z,5.63
2019-05-26T04:02:09.111Z,5.63
2019-05-26T04:03:07.766Z,5.63
2019-05-26T04:04:07.272Z,11.25
2019-05-26T04:05:08.604Z,11.25
2019-05-26T04:06:08.879Z,11.25
2019-05-26T04:07:09.992Z,11.25
2019-05-26T04:08:16.282Z,11.25
2019-05-26T04:09:10.572Z,11.25
2019-05-26T04:10:20.695Z,16.88
2019-05-26T04:11:11.706Z,16.88
2019-05-26T04:12:12.009Z,16.88
2019-05-26T04:13:13.010Z,16.88
2019-05-26T04:14:12.755Z,16.88
2019-05-26T04:15:13.211Z,16.88
2019-05-26T04:16:13.454Z,16.88
2019-05-26T04:17:13.592Z,22.5
2019-05-26T04:18:14.302Z,22.5
2019-05-26T04:19:15.587Z,22.5
2019-05-26T04:20:15.147Z,22.5
2019-05-26T04:21:16.453Z,22.5
2019-05-26T04:22:16.472Z,22.5
2019-05-26T04:23:17.184Z,22.5
2019-05-26T04:24:17.593Z,22.5
2019-05-26T04:25:18.436Z,22.5
2019-05-26T04:26:18.533Z,28.13
2019-05-26T04:27:18.668Z,28.13
2019-05-26T04:28:19.640Z,28.13
2019-05-26T04:29:21.239Z,22.5
2019-05-26T04:30:21.249Z,22.5
2019-05-26T04:31:21.658Z,22.5
2019-05-26T04:32:22.692Z,22.5
2019-05-26T04:33:23.697Z,22.5
2019-05-26T04:34:24.133Z,22.5
2019-05-26T04:35:24.570Z,22.5
2019-05-26T04:36:25.145Z,22.5
2019-05-26T04:37:25.840Z,22.5
2019-05-26T04:38:26.249Z,22.5
2019-05-26T04:39:26.398Z,28.13
2019-05-26T04:40:43.162Z,28.13
2019-05-26T04:41:28.184Z,28.13
2019-05-26T04:42:29.186Z,28.13
2019-05-26T04:43:31.238Z,28.13
2019-05-26T04:44:30.253Z,28.13
2019-05-26T04:45:30.670Z,28.13
2019-05-26T04:46:31.971Z,28.13
2019-05-26T04:47:32.173Z,28.13
2019-05-26T04:48:33.750Z,28.13
2019-05-26T04:49:37.161Z,28.13
2019-05-26T04:50:34.863Z,28.13
2019-05-26T04:51:35.608Z,28.13
2019-05-26T04:52:36.345Z,28.13
2019-05-26T04:53:37.645Z,33.75
2019-05-26T04:54:38.661Z,33.75
2019-05-26T04:55:38.933Z,33.75
2019-05-26T04:56:38.762Z,33.75
2019-05-26T04:57:39.167Z,33.75
2019-05-26T04:58:39.874Z,33.75
2019-05-26T04:59:40.677Z,33.75
2019-05-26T05:00:41.395Z,39.38
2019-05-26T05:01:42.100Z,39.38
2019-05-26T05:02:42.524Z,39.38
2019-05-26T05:03:43.256Z,39.38
2019-05-26T05:04:44.272Z,39.38
2019-05-26T05:05:44.697Z,39.38
2019-05-26T05:06:45.661Z,39.38
2019-05-26T05:07:46.653Z,39.38
2019-05-26T05:08:47.671Z,39.38
2019-05-26T05:09:47.801Z,39.38
2019-05-26T05:10:58.578Z,45
2019-05-26T05:11:49.282Z,45
2019-05-26T05:12:50.357Z,45
2019-05-26T05:13:50.490Z,45
2019-05-26T05:14:51.224Z,45
2019-05-26T05:15:51.971Z,50.63
2019-05-26T05:16:52.544Z,50.63
2019-05-26T05:17:53.281Z,50.63
2019-05-26T05:18:53.980Z,50.63
2019-05-26T05:19:54.404Z,50.63
2019-05-26T05:20:54.602Z,50.63
2019-05-26T05:21:54.726Z,56.25
2019-05-26T05:22:54.850Z,56.25
2019-05-26T05:23:55.254Z,56.25
2019-05-26T05:24:55.976Z,56.25
2019-05-26T05:25:56.398Z,56.25
2019-05-26T05:26:56.635Z,56.25
2019-05-26T05:27:57.033Z,56.25
2019-05-26T05:28:57.730Z,56.25
2019-05-26T05:29:58.145Z,56.25
2019-05-26T05:30:58.878Z,56.25
2019-05-26T05:31:59.273Z,56.25
2019-05-26T05:32:59.407Z,56.25
2019-05-26T05:33:59.532Z,61.88
2019-05-26T05:34:59.959Z,61.88
2019-05-26T05:36:00.937Z,61.88
2019-05-26T05:37:00.873Z,61.88
2019-05-26T05:38:01.863Z,67.5
2019-05-26T05:39:02.555Z,67.5
2019-05-26T05:40:02.959Z,67.5
2019-05-26T05:41:15.275Z,67.5
2019-05-26T05:42:03.986Z,67.5
2019-05-26T05:43:04.386Z,67.5
2019-05-26T05:44:04.848Z,67.5
2019-05-26T05:45:05.267Z,61.88
2019-05-26T05:46:05.708Z,61.88
2019-05-26T05:47:06.213Z,61.88
2019-05-26T05:48:06.923Z,61.88
2019-05-26T05:49:07.726Z,61.88
2019-05-26T05:50:08.439Z,61.88
2019-05-26T05:51:08.875Z,61.88
2019-05-26T05:52:09.293Z,67.5
2019-05-26T05:53:09.761Z,67.5
2019-05-26T05:54:10.820Z,67.5
2019-05-26T05:55:11.549Z,73.13
2019-05-26T05:56:13.257Z,73.13
2019-05-26T05:57:13.076Z,73.13
2019-05-26T05:58:13.498Z,73.13
2019-05-26T05:59:13.943Z,73.13
2019-05-26T06:00:14.390Z,73.13
2019-05-26T06:01:14.808Z,73.13
2019-05-26T06:02:15.511Z,73.13
2019-05-26T06:03:18.536Z,73.13
2019-05-26T06:04:16.181Z,73.13
2019-05-26T06:05:16.607Z,78.75
2019-05-26T06:06:17.345Z,84.38
2019-05-26T06:07:17.880Z,84.38
2019-05-26T06:08:18.160Z,90
2019-05-26T06:09:19.258Z,95.63
2019-05-26T06:10:20.276Z,95.63
2019-05-26T06:11:32.443Z,95.63
2019-05-26T06:12:20.870Z,95.63
2019-05-26T06:13:21.549Z,95.63
2019-05-26T06:14:21.991Z,95.63
2019-05-26T06:15:26.482Z,90
2019-05-26T06:16:22.904Z,90
2019-05-26T06:17:26.867Z,84.38
2019-05-26T06:18:24.268Z,84.38
2019-05-26T06:19:24.386Z,84.38
2019-05-26T06:20:24.878Z,78.75
2019-05-26T06:21:25.003Z,78.75
2019-05-26T06:22:25.133Z,84.38
2019-05-26T06:23:25.830Z,84.38
2019-05-26T06:24:26.259Z,84.38
2019-05-26T06:25:27.022Z,90
2019-05-26T06:26:27.723Z,95.63
2019-05-26T06:27:27.944Z,101.25
2019-05-26T06:28:28.067Z,106.88
2019-05-26T06:29:28.481Z,106.88
2019-05-26T06:30:28.916Z,106.88
2019-05-26T06:31:29.975Z,106.88
2019-05-26T06:32:31.156Z,101.25
2019-05-26T06:33:30.848Z,101.25
2019-05-26T06:34:30.974Z,95.63
2019-05-26T06:35:32.696Z,95.63
2019-05-26T06:36:32.031Z,90
2019-05-26T06:37:33.254Z,90
2019-05-26T06:38:33.675Z,90
2019-05-26T06:39:34.075Z,90
2019-05-26T06:40:34.505Z,90
2019-05-26T06:41:49.105Z,95.63
2019-05-26T06:42:35.529Z,95.63
2019-05-26T06:43:36.285Z,101.25
2019-05-26T06:44:52.343Z,101.25
2019-05-26T06:45:38.039Z,101.25
2019-05-26T06:46:38.746Z,101.25
2019-05-26T06:47:38.797Z,106.88
2019-05-26T06:48:42.692Z,106.88
2019-05-26T06:49:40.112Z,106.88
2019-05-26T06:50:40.816Z,106.88
2019-05-26T06:51:41.810Z,112.5
2019-05-26T06:52:41.944Z,112.5
2019-05-26T06:53:43.230Z,112.5
2019-05-26T06:54:42.932Z,112.5
2019-05-26T06:55:43.370Z,106.88
2019-05-26T06:56:44.953Z,101.25
2019-05-26T06:57:44.503Z,101.25
2019-05-26T06:58:44.627Z,95.63
2019-05-26T06:59:45.345Z,95.63
2019-05-26T07:00:45.483Z,95.63
2019-05-26T07:01:45.905Z,95.63
2019-05-26T07:02:46.350Z,95.63
2019-05-26T07:03:46.768Z,95.63
2019-05-26T07:04:47.200Z,101.25
2019-05-26T07:05:47.640Z,101.25
2019-05-26T07:06:48.359Z,101.25
2019-05-26T07:07:48.594Z,101.25
2019-05-26T07:08:49.285Z,95.63
2019-05-26T07:09:49.701Z,95.63
2019-05-26T07:10:50.414Z,95.63
2019-05-26T07:12:11.812Z,95.63
2019-05-26T07:12:51.238Z,95.63
2019-05-26T07:13:51.958Z,95.63
2019-05-26T07:14:52.952Z,95.63
2019-05-26T07:15:53.451Z,95.63
2019-05-26T07:16:55.015Z,101.25
2019-05-26T07:17:53.682Z,101.25
2019-05-26T07:18:54.115Z,101.25
2019-05-26T07:19:54.535Z,101.25
2019-05-26T07:20:55.240Z,106.88
2019-05-26T07:21:55.689Z,106.88
2019-05-26T07:22:55.815Z,112.5
2019-05-26T07:23:55.933Z,118.13
2019-05-26T07:24:56.209Z,112.5
2019-05-26T07:25:56.358Z,112.5
2019-05-26T07:26:57.075Z,118.13
2019-05-26T07:27:57.366Z,118.13
2019-05-26T07:28:58.098Z,118.13
2019-05-26T07:29:58.575Z,123.75
2019-05-26T07:30:59.858Z,118.13
2019-05-26T07:31:59.986Z,118.13
2019-05-26T07:33:00.725Z,118.13
2019-05-26T07:34:00.860Z,112.5
2019-05-26T07:35:01.256Z,112.5
2019-05-26T07:36:01.384Z,112.5
2019-05-26T07:37:02.078Z,118.13
2019-05-26T07:38:02.340Z,118.13
2019-05-26T07:39:02.476Z,123.75
2019-05-26T07:40:03.213Z,123.75
2019-05-26T07:41:03.918Z,129.38
2019-05-26T07:42:21.673Z,129.38
2019-05-26T07:43:04.811Z,135
2019-05-26T07:44:05.810Z,140.63
2019-05-26T07:45:06.516Z,140.63
2019-05-26T07:46:07.233Z,146.25
2019-05-26T07:47:07.930Z,146.25
2019-05-26T07:48:08.766Z,140.63
2019-05-26T07:49:08.481Z,140.63
2019-05-26T07:50:08.920Z,146.25
2019-05-26T07:51:09.347Z,146.25
2019-05-26T07:52:09.784Z,151.88
2019-05-26T07:53:10.782Z,157.5
2019-05-26T07:54:24.846Z,157.5
2019-05-26T07:55:11.707Z,163.13
2019-05-26T07:56:12.111Z,163.13
2019-05-26T07:57:12.250Z,163.13
2019-05-26T07:58:13.507Z,163.13
2019-05-26T07:59:13.632Z,168.75
2019-05-26T08:00:14.697Z,168.75
2019-05-26T08:01:14.101Z,168.75
2019-05-26T08:02:15.135Z,168.75
2019-05-26T08:03:15.836Z,163.13
2019-05-26T08:04:16.260Z,163.13
2019-05-26T08:05:16.944Z,163.13
2019-05-26T08:06:17.099Z,168.75
2019-05-26T08:07:17.841Z,174.38
2019-05-26T08:08:28.776Z,180
2019-05-26T08:09:19.223Z,180
2019-05-26T08:10:20.563Z,185.63
2019-05-26T08:11:20.983Z,191.25
2019-05-26T08:12:41.193Z,196.88
2019-05-26T08:13:21.612Z,202.5
2019-05-26T08:14:22.300Z,208.13
2019-05-26T08:15:22.434Z,208.13
2019-05-26T08:16:22.635Z,208.13
2019-05-26T08:17:23.362Z,208.13
2019-05-26T08:18:23.031Z,202.5
2019-05-26T08:19:23.755Z,196.88
2019-05-26T08:20:24.492Z,196.88
2019-05-26T08:21:24.913Z,196.88
2019-05-26T08:22:25.042Z,196.88
2019-05-26T08:23:25.172Z,196.88
2019-05-26T08:24:25.312Z,202.5
2019-05-26T08:25:25.735Z,196.88
2019-05-26T08:26:26.450Z,202.5
2019-05-26T08:27:27.205Z,202.5
2019-05-26T08:28:27.172Z,208.13
2019-05-26T08:29:27.886Z,213.75
2019-05-26T08:30:28.583Z,213.75
2019-05-26T08:31:29.602Z,219.38
2019-05-26T08:32:30.979Z,219.38
2019-05-26T08:33:30.679Z,225
2019-05-26T08:34:31.401Z,225
2019-05-26T08:35:31.843Z,225
2019-05-26T08:36:32.596Z,236.25
2019-05-26T08:37:33.000Z,236.25
2019-05-26T08:38:34.335Z,241.88
2019-05-26T08:39:35.058Z,247.5
2019-05-26T08:40:35.507Z,253.13
2019-05-26T08:41:35.928Z,253.13
2019-05-26T08:42:55.643Z,264.38
2019-05-26T08:43:37.067Z,270
2019-05-26T08:44:37.782Z,281.25
2019-05-26T08:45:38.975Z,292.5
2019-05-26T08:46:38.100Z,303.75
2019-05-26T08:47:38.225Z,320.63
2019-05-26T08:48:39.339Z,337.5
2019-05-26T08:49:39.037Z,354.38
2019-05-26T08:50:39.818Z,371.25
2019-05-26T08:51:39.945Z,393.75
2019-05-26T08:52:40.773Z,427.5
2019-05-26T08:53:40.898Z,556.88
2019-05-26T08:54:41.037Z,990
2019-05-26T08:55:41.461Z,1749.38
2019-05-26T08:56:41.885Z,1749.38
2019-05-26T08:57:42.312Z,1681.88
2019-05-26T08:58:45.201Z,1563.75
2019-05-26T08:59:43.186Z,1451.25
2019-05-26T09:00:43.893Z,1411.88
2019-05-26T09:01:44.023Z,1456.88
2019-05-26T09:02:44.153Z,1400.63
2019-05-26T09:03:44.286Z,1366.88
2019-05-26T09:04:45.303Z,1288.13
2019-05-26T09:05:45.480Z,1361.25
2019-05-26T09:06:45.914Z,1113.75
2019-05-26T09:07:46.347Z,860.63
2019-05-26T09:08:46.316Z,1085.63
2019-05-26T09:09:47.113Z,1175.63
2019-05-26T09:10:48.184Z,838.13
2019-05-26T09:11:48.339Z,641.25
2019-05-26T09:12:59.988Z,1164.38
2019-05-26T09:13:49.204Z,1158.75
2019-05-26T09:14:50.222Z,838.13
2019-05-26T09:15:51.229Z,1198.13
2019-05-26T09:16:52.225Z,1147.5
2019-05-26T09:17:52.991Z,1170
2019-05-26T09:18:52.979Z,793.13
2019-05-26T09:19:53.118Z,618.75
2019-05-26T09:20:53.260Z,1001.25
2019-05-26T09:21:54.259Z,1203.75
2019-05-26T09:22:54.383Z,635.63
2019-05-26T09:23:54.834Z,371.25
2019-05-26T09:24:55.245Z,416.25
2019-05-26T09:25:57.637Z,371.25
2019-05-26T09:26:56.050Z,331.88
2019-05-26T09:27:56.484Z,320.63
2019-05-26T09:28:57.447Z,309.38
2019-05-26T09:29:57.857Z,309.38
2019-05-26T09:30:58.266Z,303.75
2019-05-26T09:31:59.568Z,298.13
2019-05-26T09:32:59.710Z,292.5
2019-05-26T09:34:00.427Z,292.5
2019-05-26T09:35:01.434Z,292.5
2019-05-26T09:36:01.592Z,292.5
2019-05-26T09:37:02.755Z,309.38
2019-05-26T09:38:01.889Z,320.63
2019-05-26T09:39:02.950Z,331.88
2019-05-26T09:40:03.371Z,360
2019-05-26T09:41:04.119Z,371.25
2019-05-26T09:42:04.253Z,382.5
2019-05-26T09:43:20.422Z,405
2019-05-26T09:44:05.555Z,410.63
2019-05-26T09:45:05.693Z,405
2019-05-26T09:46:06.140Z,405
2019-05-26T09:47:06.854Z,472.5
2019-05-26T09:48:07.545Z,1130.63
2019-05-26T09:49:11.879Z,641.25
2019-05-26T09:50:09.301Z,438.75
2019-05-26T09:51:09.730Z,354.38
2019-05-26T09:52:10.152Z,337.5
2019-05-26T09:53:10.583Z,331.88
2019-05-26T09:54:18.465Z,303.75
2019-05-26T09:55:11.169Z,292.5
2019-05-26T09:56:11.316Z,292.5
2019-05-26T09:57:11.452Z,286.88
2019-05-26T09:58:12.179Z,281.25
2019-05-26T09:59:13.072Z,270
2019-05-26T10:00:15.976Z,264.38
2019-05-26T10:01:13.659Z,253.13
2019-05-26T10:02:14.680Z,247.5
2019-05-26T10:03:15.114Z,241.88
2019-05-26T10:04:15.545Z,241.88
2019-05-26T10:05:16.256Z,247.5
2019-05-26T10:06:16.960Z,236.25
2019-05-26T10:07:21.563Z,236.25
2019-05-26T10:08:17.685Z,230.63
2019-05-26T10:09:19.535Z,230.63
2019-05-26T10:10:19.840Z,236.25
2019-05-26T10:11:20.548Z,236.25
2019-05-26T10:12:21.547Z,247.5
2019-05-26T10:13:36.826Z,253.13
2019-05-26T10:14:22.255Z,258.75
2019-05-26T10:15:22.976Z,270
2019-05-26T10:16:23.740Z,286.88
2019-05-26T10:17:23.882Z,292.5
2019-05-26T10:18:24.632Z,292.5
2019-05-26T10:19:25.310Z,298.13
2019-05-26T10:20:26.011Z,286.88
2019-05-26T10:21:26.143Z,286.88
2019-05-26T10:22:26.287Z,292.5
2019-05-26T10:23:27.049Z,298.13
2019-05-26T10:24:27.473Z,298.13
2019-05-26T10:25:28.780Z,309.38
2019-05-26T10:26:28.958Z,320.63
2019-05-26T10:27:29.671Z,343.13
2019-05-26T10:28:30.374Z,360
2019-05-26T10:29:31.009Z,388.13
2019-05-26T10:30:31.140Z,405
2019-05-26T10:31:32.435Z,421.88
2019-05-26T10:32:33.161Z,405
2019-05-26T10:33:33.583Z,388.13
2019-05-26T10:34:34.011Z,388.13
2019-05-26T10:35:34.455Z,354.38
2019-05-26T10:36:35.177Z,337.5
2019-05-26T10:37:35.315Z,331.88
2019-05-26T10:38:35.740Z,343.13
2019-05-26T10:39:35.712Z,343.13
2019-05-26T10:40:35.879Z,337.5
2019-05-26T10:41:36.304Z,331.88
2019-05-26T10:42:37.015Z,337.5
2019-05-26T10:43:52.399Z,331.88
2019-05-26T10:44:37.824Z,320.63
2019-05-26T10:45:39.676Z,326.25
2019-05-26T10:46:38.809Z,326.25
2019-05-26T10:47:39.513Z,326.25
2019-05-26T10:48:39.938Z,326.25
2019-05-26T10:49:40.627Z,326.25
2019-05-26T10:50:40.787Z,326.25
2019-05-26T10:51:41.495Z,326.25
2019-05-26T10:52:41.924Z,326.25
2019-05-26T10:53:42.331Z,331.88
2019-05-26T10:54:42.467Z,331.88
2019-05-26T10:55:43.454Z,348.75
2019-05-26T10:56:43.589Z,365.63
2019-05-26T10:57:43.720Z,410.63
2019-05-26T10:58:44.164Z,410.63
2019-05-26T10:59:47.876Z,421.88
2019-05-26T11:00:49.315Z,421.88
2019-05-26T11:01:46.046Z,427.5
2019-05-26T11:02:46.759Z,416.25
2019-05-26T11:03:47.254Z,416.25
2019-05-26T11:04:47.970Z,421.88
2019-05-26T11:05:48.374Z,444.38
2019-05-26T11:06:48.789Z,444.38
2019-05-26T11:07:48.922Z,438.75
2019-05-26T11:08:49.339Z,438.75
2019-05-26T11:09:49.868Z,421.88
2019-05-26T11:10:50.001Z,399.38
2019-05-26T11:11:50.713Z,360
2019-05-26T11:12:50.884Z,343.13
2019-05-26T11:14:07.148Z,337.5
2019-05-26T11:14:51.310Z,337.5
2019-05-26T11:15:52.012Z,331.88
2019-05-26T11:16:52.428Z,326.25
2019-05-26T11:17:53.137Z,315
2019-05-26T11:18:53.280Z,309.38
2019-05-26T11:19:53.968Z,303.75
2019-05-26T11:20:54.108Z,303.75
2019-05-26T11:21:54.867Z,303.75
2019-05-26T11:22:55.874Z,303.75
2019-05-26T11:23:56.299Z,309.38
2019-05-26T11:24:56.993Z,320.63
2019-05-26T11:25:57.431Z,320.63
2019-05-26T11:27:07.959Z,320.63
2019-05-26T11:27:58.940Z,303.75
2019-05-26T11:28:59.358Z,286.88
2019-05-26T11:30:00.048Z,270
2019-05-26T11:31:00.185Z,270
2019-05-26T11:32:00.606Z,275.63
2019-05-26T11:33:05.132Z,281.25
2019-05-26T11:34:02.010Z,286.88
2019-05-26T11:35:16.675Z,292.5
2019-05-26T11:36:02.397Z,298.13
2019-05-26T11:37:02.822Z,298.13
2019-05-26T11:38:04.102Z,309.38
2019-05-26T11:39:05.096Z,315
2019-05-26T11:40:05.633Z,326.25
2019-05-26T11:41:08.046Z,331.88
2019-05-26T11:42:24.977Z,337.5
2019-05-26T11:43:21.762Z,348.75
2019-05-26T11:44:22.476Z,360
2019-05-26T11:45:08.479Z,365.63
2019-05-26T11:46:09.004Z,466.88
2019-05-26T11:47:09.430Z,455.63
2019-05-26T11:48:09.866Z,444.38
2019-05-26T11:49:10.004Z,421.88
2019-05-26T11:50:11.546Z,410.63
2019-05-26T11:51:12.325Z,438.75
2019-05-26T11:52:13.741Z,444.38
2019-05-26T11:53:14.188Z,489.38
2019-05-26T11:54:14.327Z,601.88
2019-05-26T11:55:15.316Z,466.88
2019-05-26T11:56:15.813Z,405
2019-05-26T11:57:16.242Z,360
2019-05-26T11:58:16.676Z,360
2019-05-26T11:59:17.144Z,360
2019-05-26T12:00:22.220Z,376.88
2019-05-26T12:01:22.549Z,393.75
2019-05-26T12:02:19.558Z,393.75
2019-05-26T12:03:19.995Z,393.75
2019-05-26T12:04:20.449Z,405
2019-05-26T12:05:23.396Z,388.13
2019-05-26T12:06:21.535Z,382.5
2019-05-26T12:07:22.835Z,376.88
2019-05-26T12:08:22.985Z,371.25
2019-05-26T12:09:23.711Z,371.25
2019-05-26T12:10:25.318Z,371.25
2019-05-26T12:11:24.742Z,371.25
2019-05-26T12:12:24.881Z,365.63
2019-05-26T12:13:25.645Z,365.63
2019-05-26T12:14:40.268Z,371.25
2019-05-26T12:15:27.280Z,393.75
2019-05-26T12:16:28.910Z,365.63
2019-05-26T12:17:28.432Z,360
2019-05-26T12:18:29.144Z,354.38
2019-05-26T12:19:30.517Z,354.38
2019-05-26T12:20:30.618Z,348.75
2019-05-26T12:21:31.340Z,348.75
2019-05-26T12:22:31.807Z,348.75
2019-05-26T12:23:32.235Z,354.38
2019-05-26T12:24:32.959Z,348.75
2019-05-26T12:25:33.677Z,348.75
2019-05-26T12:26:33.854Z,343.13
2019-05-26T12:27:34.563Z,337.5
2019-05-26T12:28:35.268Z,331.88
2019-05-26T12:29:35.411Z,326.25
2019-05-26T12:30:36.950Z,326.25
2019-05-26T12:31:37.088Z,320.63
2019-05-26T12:32:37.774Z,320.63
2019-05-26T12:33:38.498Z,326.25
2019-05-26T12:34:38.930Z,326.25
2019-05-26T12:35:39.383Z,326.25
2019-05-26T12:36:39.798Z,320.63
2019-05-26T12:37:39.923Z,320.63
2019-05-26T12:38:40.643Z,315
2019-05-26T12:39:41.071Z,315
2019-05-26T12:40:42.041Z,320.63
2019-05-26T12:41:48.166Z,326.25
2019-05-26T12:42:42.311Z,337.5
2019-05-26T12:43:42.737Z,337.5
2019-05-26T12:44:54.454Z,337.5
2019-05-26T12:45:44.184Z,337.5
2019-05-26T12:46:44.313Z,337.5
2019-05-26T12:47:44.447Z,343.13
2019-05-26T12:48:44.592Z,343.13
2019-05-26T12:49:45.346Z,337.5
2019-05-26T12:50:45.896Z,337.5
2019-05-26T12:51:46.583Z,331.88
2019-05-26T12:52:46.729Z,326.25
2019-05-26T12:53:47.435Z,326.25
2019-05-26T12:54:47.850Z,326.25
2019-05-26T12:55:48.262Z,320.63
2019-05-26T12:56:49.309Z,320.63
2019-05-26T12:57:50.048Z,315
2019-05-26T12:58:50.176Z,315
2019-05-26T12:59:50.884Z,315
2019-05-26T13:01:06.302Z,315
2019-05-26T13:01:51.731Z,315
2019-05-26T13:02:52.927Z,315
2019-05-26T13:03:52.358Z,309.38
2019-05-26T13:04:52.488Z,309.38
2019-05-26T13:05:52.905Z,309.38
2019-05-26T13:06:53.908Z,315
2019-05-26T13:07:54.040Z,315
2019-05-26T13:08:54.456Z,320.63
2019-05-26T13:09:55.153Z,326.25
2019-05-26T13:10:55.115Z,331.88
2019-05-26T13:11:55.249Z,331.88
2019-05-26T13:12:55.959Z,331.88
2019-05-26T13:13:56.945Z,331.88
2019-05-26T13:15:11.002Z,331.88
2019-05-26T13:15:58.427Z,331.88
2019-05-26T13:17:01.467Z,337.5
2019-05-26T13:17:59.422Z,331.88
2019-05-26T13:19:00.249Z,331.88
2019-05-26T13:20:00.656Z,326.25
2019-05-26T13:21:00.623Z,320.63
2019-05-26T13:22:01.189Z,315
2019-05-26T13:23:01.940Z,315
2019-05-26T13:24:02.341Z,303.75